Time;durP1;ratioP1;P1;durP2;ratioP2;P2;SDS_P1;SDS_P2;PMS_P1;PMS_P2;Temp;Humidity;BMP_temperature;BMP_pressure;BME280_temperature;BME280_humidity;BME280_pressure;Samples;Min_cycle;Max_cycle;Signal;HPM_P1;HPM_P2
2023/12/08 00:01:01;;;;;;;;;;;;;;;1.90;98.34;100718.41;4957383;28;19914;-60
2023/12/08 00:03:26;;;;;;;;;;;;;;;1.92;98.67;100710.41;4956600;28;19936;-60
2023/12/08 00:05:51;;;;;;;;;;;;;;;1.89;98.87;100706.25;4959755;28;19918;-60
2023/12/08 00:08:16;;;;;;;;;;;;;;;1.89;98.98;100695.78;4958478;28;19926;-61
2023/12/08 00:10:42;;;;;;;;;;;;;;;1.89;99.03;100695.78;4958561;28;19978;-61
2023/12/08 00:13:07;;;;;;;;;;;;;;;1.87;99.44;100697.69;4955782;28;19932;-60
2023/12/08 00:15:32;;;;;;;;;;;;;;;1.88;99.37;100694.13;4961588;28;21039;-61
2023/12/08 00:17:57;;;;;;;;;;;;;;;1.90;99.66;100689.59;4959903;28;19922;-61
2023/12/08 00:20:23;;;;;;;;;;;;;;;1.91;99.25;100696.50;4957649;28;19925;-60
2023/12/08 00:22:48;;;;;;;;;;;;;;;1.89;99.54;100697.56;4960955;28;19969;-61
2023/12/08 00:25:13;;;;;;;;;;;;;;;1.91;99.62;100703.53;4964678;28;19929;-61
2023/12/08 00:27:38;;;;;;;;;;;;;;;1.90;99.98;100705.31;4961009;28;19957;-61
2023/12/08 00:30:04;;;;;;;;;;;;;;;1.92;99.74;100702.56;4958918;28;20005;-60
2023/12/08 00:32:30;;;;;;;;;;;;;;;1.93;99.77;100701.63;4960930;28;19976;-61
2023/12/08 00:34:55;;;;;;;;;;;;;;;1.92;100.00;100692.94;4956544;28;20012;-61
2023/12/08 00:37:21;;;;;;;;;;;;;;;1.99;100.00;100678.41;4961394;28;19922;-61
2023/12/08 00:39:46;;;;;;;;;;;;;;;2.00;99.85;100684.47;4959143;28;19926;-61
2023/12/08 00:42:11;;;;;;;;;;;;;;;1.96;100.00;100688.28;4957865;28;19943;-61
2023/12/08 00:44:37;;;;;;;;;;;;;;;1.98;100.00;100681.97;4963402;28;19925;-60
2023/12/08 00:47:03;;;;;;;;;;;;;;;1.99;99.97;100681.00;4958483;28;19965;-60
2023/12/08 00:49:29;;;;;;;;;;;;;;;1.99;99.96;100674.94;4941678;28;19919;-61
2023/12/08 00:51:55;;;;;;;;;;;;;;;2.01;99.86;100671.25;4957667;28;19969;-60
2023/12/08 00:54:21;;;;;;;;;;;;;;;2.01;100.00;100678.28;4963028;28;19918;-61
2023/12/08 00:56:47;;;;;;;;;;;;;;;2.02;100.00;100679.94;4957555;28;19928;-60
2023/12/08 00:59:12;;;;;;;;;;;;;;;2.02;100.00;100669.47;4957632;28;19948;-61
2023/12/08 01:01:37;;;;;;;;;;;;;;;2.08;100.00;100667.22;4961966;28;19961;-60
2023/12/08 01:04:02;;;;;;;;;;;;;;;2.06;100.00;100678.78;4956691;28;19924;-61
2023/12/08 01:06:28;;;;;;;;;;;;;;;2.06;100.00;100670.91;4953915;28;19913;-61
2023/12/08 01:08:53;;;;;;;;;;;;;;;2.07;99.92;100670.78;4958091;28;19918;-61
2023/12/08 01:11:18;;;;;;;;;;;;;;;2.04;100.00;100655.31;4956370;28;19920;-61
2023/12/08 01:13:44;;;;;;;;;;;;;;;2.05;99.84;100659.59;4958544;28;19965;-60
2023/12/08 01:16:10;;;;;;;;;;;;;;;2.07;100.00;100642.00;4957100;28;20016;-61
2023/12/08 01:18:37;;;;;;;;;;;;;;;2.12;99.97;100654.72;4957117;28;20548;-60
2023/12/08 01:21:02;;;;;;;;;;;;;;;2.06;100.00;100642.09;4958744;28;19918;-60
2023/12/08 01:23:28;;;;;;;;;;;;;;;2.08;99.81;100640.19;4954799;28;19926;-60
2023/12/08 01:25:53;;;;;;;;;;;;;;;2.11;99.77;100643.41;4963776;28;19960;-60
2023/12/08 01:28:19;;;;;;;;;;;;;;;2.11;100.00;100648.63;4955813;28;19914;-61
2023/12/08 01:30:44;;;;;;;;;;;;;;;2.09;100.00;100647.09;4953436;28;20016;-60
2023/12/08 01:33:09;;;;;;;;;;;;;;;2.07;99.94;100647.22;4958936;28;20414;-60
2023/12/08 01:35:34;;;;;;;;;;;;;;;2.12;99.95;100650.31;4953170;28;20006;-61
2023/12/08 01:37:59;;;;;;;;;;;;;;;2.10;100.00;100639.13;4960790;28;19918;-61
2023/12/08 01:40:25;;;;;;;;;;;;;;;2.17;100.00;100632.44;4956281;28;19918;-61
2023/12/08 01:42:50;;;;;;;;;;;;;;;2.11;100.00;100632.09;4958403;28;20460;-61
2023/12/08 01:45:16;;;;;;;;;;;;;;;2.16;100.00;100619.47;4958890;28;19922;-60
2023/12/08 01:47:41;;;;;;;;;;;;;;;2.08;99.98;100614.84;4959983;28;19914;-60
2023/12/08 01:50:08;;;;;;;;;;;;;;;2.08;100.00;100614.00;4962030;28;19980;-61
2023/12/08 01:52:33;;;;;;;;;;;;;;;2.08;100.00;100614.00;4956867;28;19922;-61
2023/12/08 01:54:59;;;;;;;;;;;;;;;2.10;100.00;100619.94;4959359;28;21510;-60
2023/12/08 01:57:24;;;;;;;;;;;;;;;2.18;100.00;100613.13;4961244;28;19957;-60
2023/12/08 01:59:50;;;;;;;;;;;;;;;2.13;99.82;100609.22;4958940;28;19964;-60
2023/12/08 02:02:16;;;;;;;;;;;;;;;2.18;100.00;100617.56;4958506;28;19929;-60
2023/12/08 02:04:43;;;;;;;;;;;;;;;2.17;100.00;100611.47;4954742;28;19918;-60
2023/12/08 02:07:08;;;;;;;;;;;;;;;2.08;99.90;100596.50;4960385;28;19925;-60
2023/12/08 02:09:34;;;;;;;;;;;;;;;2.25;100.00;100607.41;4963058;28;19922;-60
2023/12/08 02:11:59;;;;;;;;;;;;;;;2.16;99.79;100603.75;4958837;28;20441;-60
2023/12/08 02:14:24;;;;;;;;;;;;;;;2.14;100.00;100601.25;4960983;28;19914;-60
2023/12/08 02:16:52;;;;;;;;;;;;;;;2.18;99.96;100600.03;4961857;28;19914;-61
2023/12/08 02:19:19;;;;;;;;;;;;;;;2.14;100.00;100587.31;4962776;28;19918;-61
2023/12/08 02:21:44;;;;;;;;;;;;;;;2.16;100.00;100582.78;4957489;28;19968;-61
2023/12/08 02:24:10;;;;;;;;;;;;;;;2.09;100.00;100581.63;4963076;28;19953;-61
2023/12/08 02:26:35;;;;;;;;;;;;;;;2.06;100.00;100577.47;4960836;28;19922;-61
2023/12/08 02:29:00;;;;;;;;;;;;;;;2.06;100.00;100580.09;4963099;28;19925;-61
2023/12/08 02:31:35;;;;;;;;;;;;;;;2.04;100.00;100579.38;4959370;28;20279;-61
2023/12/08 02:34:01;;;;;;;;;;;;;;;2.03;100.00;100572.47;4959417;28;19925;-60
2023/12/08 02:36:26;;;;;;;;;;;;;;;2.05;100.00;100570.56;4959773;28;19922;-61
2023/12/08 02:38:52;;;;;;;;;;;;;;;2.07;100.00;100571.28;4958277;28;19922;-61
2023/12/08 02:41:18;;;;;;;;;;;;;;;2.02;100.00;100557.69;4955377;28;19917;-60
2023/12/08 02:43:43;;;;;;;;;;;;;;;2.07;100.00;100552.94;4961397;28;20556;-61
2023/12/08 02:46:08;;;;;;;;;;;;;;;2.05;100.00;100549.63;4955772;28;19922;-61
2023/12/08 02:48:33;;;;;;;;;;;;;;;2.04;100.00;100561.03;4961010;28;19925;-60
2023/12/08 02:50:59;;;;;;;;;;;;;;;2.06;100.00;100561.75;4957053;28;19925;-61
2023/12/08 02:53:24;;;;;;;;;;;;;;;2.03;100.00;100571.63;4956548;28;19922;-61
2023/12/08 02:55:49;;;;;;;;;;;;;;;2.04;100.00;100568.06;4955011;28;20089;-60
2023/12/08 02:58:14;;;;;;;;;;;;;;;2.03;100.00;100566.41;4953593;28;20406;-61
2023/12/08 03:00:39;;;;;;;;;;;;;;;2.04;100.00;100576.75;4953795;28;20376;-61
2023/12/08 03:03:05;;;;;;;;;;;;;;;2.06;100.00;100577.47;4956595;28;19918;-60
2023/12/08 03:05:30;;;;;;;;;;;;;;;2.07;100.00;100576.50;4953169;28;19918;-60
2023/12/08 03:07:55;;;;;;;;;;;;;;;2.09;100.00;100564.13;4953871;28;20395;-60
2023/12/08 03:10:20;;;;;;;;;;;;;;;2.08;100.00;100572.09;4953793;28;19949;-60
2023/12/08 03:12:46;;;;;;;;;;;;;;;2.08;100.00;100569.47;4950420;28;19980;-61
2023/12/08 03:15:11;;;;;;;;;;;;;;;2.09;100.00;100571.97;4961038;28;19988;-60
2023/12/08 03:17:36;;;;;;;;;;;;;;;2.12;100.00;100576.97;4959012;28;19918;-61
2023/12/08 03:20:01;;;;;;;;;;;;;;;2.12;100.00;100576.97;4956773;28;19969;-60
2023/12/08 03:22:26;;;;;;;;;;;;;;;2.11;100.00;100583.16;4956915;28;19918;-60
2023/12/08 03:24:52;;;;;;;;;;;;;;;2.11;100.00;100580.53;4956413;28;19918;-60
2023/12/08 03:27:17;;;;;;;;;;;;;;;2.13;100.00;100568.16;4960071;28;19925;-60
2023/12/08 03:29:42;;;;;;;;;;;;;;;2.15;100.00;100562.78;4953060;28;19923;-60
2023/12/08 03:32:07;;;;;;;;;;;;;;;2.12;100.00;100561.25;4956920;28;19918;-60
2023/12/08 03:34:33;;;;;;;;;;;;;;;2.11;100.00;100559.59;4957694;28;19992;-60
2023/12/08 03:36:58;;;;;;;;;;;;;;;2.11;100.00;100545.66;4950762;28;19929;-60
2023/12/08 03:39:23;;;;;;;;;;;;;;;2.09;100.00;100543.16;4962703;28;20383;-60
2023/12/08 03:41:48;;;;;;;;;;;;;;;2.08;100.00;100545.91;4955519;28;20350;-60
2023/12/08 03:44:14;;;;;;;;;;;;;;;2.07;100.00;100550.31;4957881;28;19956;-61
2023/12/08 03:46:42;;;;;;;;;;;;;;;2.07;100.00;100552.09;4951712;28;19964;-60
2023/12/08 03:49:07;;;;;;;;;;;;;;;2.06;100.00;100546.03;4955609;28;19918;-60
2023/12/08 03:51:32;;;;;;;;;;;;;;;2.07;100.00;100544.25;4958132;28;20380;-60
2023/12/08 03:53:57;;;;;;;;;;;;;;;2.04;100.00;100542.72;4954454;28;19922;-60
2023/12/08 03:56:22;;;;;;;;;;;;;;;2.00;100.00;100532.56;4961604;28;19924;-60
2023/12/08 03:58:48;;;;;;;;;;;;;;;2.05;100.00;100535.69;4964814;28;19922;-60
2023/12/08 04:01:17;;;;;;;;;;;;;;;2.03;100.00;100533.19;4960649;28;19925;-60
2023/12/08 04:03:42;;;;;;;;;;;;;;;2.03;100.00;100527.94;4962009;28;20045;-60
2023/12/08 04:06:07;;;;;;;;;;;;;;;2.01;100.00;100529.00;4955173;28;20013;-60
2023/12/08 04:08:32;;;;;;;;;;;;;;;1.97;100.00;100531.03;4963442;28;19988;-60
2023/12/08 04:10:58;;;;;;;;;;;;;;;1.99;100.00;100526.50;4958087;28;20097;-60
2023/12/08 04:13:23;;;;;;;;;;;;;;;1.99;100.00;100525.69;4957906;28;19922;-60
2023/12/08 04:15:49;;;;;;;;;;;;;;;1.98;100.00;100532.69;4956174;28;19977;-60
2023/12/08 04:18:14;;;;;;;;;;;;;;;1.99;100.00;100529.13;4965416;28;19914;-60
2023/12/08 04:20:39;;;;;;;;;;;;;;;2.02;100.00;100530.66;4965743;28;19914;-60
2023/12/08 04:23:05;;;;;;;;;;;;;;;1.99;100.00;100521.28;4958383;28;20390;-60
2023/12/08 04:25:30;;;;;;;;;;;;;;;1.99;100.00;100516.03;4960733;28;20568;-60
2023/12/08 04:27:55;;;;;;;;;;;;;;;2.02;100.00;100510.53;4962199;28;19921;-61
2023/12/08 04:30:20;;;;;;;;;;;;;;;2.01;100.00;100508.88;4956460;28;20346;-60
2023/12/08 04:32:45;;;;;;;;;;;;;;;2.03;100.00;100527.94;4962072;28;19926;-60
2023/12/08 04:35:11;;;;;;;;;;;;;;;1.99;100.00;100523.88;4964697;28;19918;-61
2023/12/08 04:37:36;;;;;;;;;;;;;;;1.99;100.00;100534.38;4965994;28;19957;-60
2023/12/08 04:40:01;;;;;;;;;;;;;;;1.99;100.00;100550.06;4962950;28;19918;-60
2023/12/08 04:42:26;;;;;;;;;;;;;;;1.99;100.00;100542.22;4964626;28;19980;-60
2023/12/08 04:44:52;;;;;;;;;;;;;;;1.98;100.00;100524.00;4956030;28;19992;-60
2023/12/08 04:47:17;;;;;;;;;;;;;;;2.00;100.00;100514.25;4962505;28;21253;-60
2023/12/08 04:49:42;;;;;;;;;;;;;;;2.00;100.00;100515.06;4954228;28;20551;-61
2023/12/08 04:52:07;;;;;;;;;;;;;;;1.99;100.00;100531.75;4964285;28;19964;-60
2023/12/08 04:54:32;;;;;;;;;;;;;;;1.99;100.00;100536.16;4956738;28;19917;-60
2023/12/08 04:56:57;;;;;;;;;;;;;;;1.97;100.00;100524.97;4961936;28;20122;-60
2023/12/08 04:59:23;;;;;;;;;;;;;;;1.97;100.00;100512.72;4953893;28;19918;-61
2023/12/08 05:01:51;;;;;;;;;;;;;;;2.00;100.00;100507.22;4952207;28;20279;-61
2023/12/08 05:04:17;;;;;;;;;;;;;;;2.03;100.00;100509.63;4967958;28;19914;-61
2023/12/08 05:06:43;;;;;;;;;;;;;;;2.03;100.00;100521.88;4964953;28;19925;-60
2023/12/08 05:09:08;;;;;;;;;;;;;;;2.03;100.00;100516.66;4955752;28;19922;-60
2023/12/08 05:11:33;;;;;;;;;;;;;;;2.06;100.00;100519.00;4963636;28;19981;-60
2023/12/08 05:13:58;;;;;;;;;;;;;;;2.07;100.00;100513.66;4964557;28;20366;-60
2023/12/08 05:16:24;;;;;;;;;;;;;;;2.06;100.00;100514.59;4950369;28;19922;-61
2023/12/08 05:18:49;;;;;;;;;;;;;;;2.08;100.00;100509.25;4955102;28;19942;-60
2023/12/08 05:21:14;;;;;;;;;;;;;;;2.08;100.00;100504.00;4954526;28;20036;-61
2023/12/08 05:23:39;;;;;;;;;;;;;;;2.10;100.00;100504.72;4961921;28;19922;-61
2023/12/08 05:26:05;;;;;;;;;;;;;;;2.11;100.00;100496.72;4959290;28;20491;-60
2023/12/08 05:28:30;;;;;;;;;;;;;;;2.12;100.00;100503.63;4958292;28;19922;-61
2023/12/08 05:30:55;;;;;;;;;;;;;;;2.15;100.00;100498.13;4961750;28;20263;-60
2023/12/08 05:33:20;;;;;;;;;;;;;;;2.17;100.00;100504.06;4960300;28;20372;-60
2023/12/08 05:35:46;;;;;;;;;;;;;;;2.16;100.00;100510.28;4958289;28;19984;-60
2023/12/08 05:38:11;;;;;;;;;;;;;;;2.17;100.00;100511.94;4957866;28;20489;-60
2023/12/08 05:40:36;;;;;;;;;;;;;;;2.16;100.00;100526.00;4959595;28;19925;-61
2023/12/08 05:43:02;;;;;;;;;;;;;;;2.16;100.00;100522.53;4961922;28;19922;-60
2023/12/08 05:45:27;;;;;;;;;;;;;;;2.16;100.00;100523.38;4961136;28;19919;-61
2023/12/08 05:47:52;;;;;;;;;;;;;;;2.18;100.00;100524.06;4952586;28;20021;-61
2023/12/08 05:50:17;;;;;;;;;;;;;;;2.21;100.00;100519.53;4948159;28;20477;-60
2023/12/08 05:52:43;;;;;;;;;;;;;;;2.21;100.00;100535.25;4958792;28;19922;-61
2023/12/08 05:55:08;;;;;;;;;;;;;;;2.20;100.00;100531.81;4955571;28;19972;-60
2023/12/08 05:57:33;;;;;;;;;;;;;;;2.22;100.00;100529.06;4957182;28;20354;-60
2023/12/08 05:59:58;;;;;;;;;;;;;;;2.23;100.00;100528.09;4950955;28;20055;-60
2023/12/08 06:02:23;;;;;;;;;;;;;;;2.23;100.00;100536.78;4949712;28;20525;-60
2023/12/08 06:04:49;;;;;;;;;;;;;;;2.25;100.00;100526.19;4957752;28;19918;-60
2023/12/08 06:07:14;;;;;;;;;;;;;;;2.25;100.00;100518.34;4949308;28;19946;-60
2023/12/08 06:09:39;;;;;;;;;;;;;;;2.27;100.00;100517.25;4956403;28;19915;-60
2023/12/08 06:12:04;;;;;;;;;;;;;;;2.28;100.00;100503.19;4961848;28;19920;-60
2023/12/08 06:14:30;;;;;;;;;;;;;;;2.32;100.00;100504.63;4957197;28;20442;-61
2023/12/08 06:16:55;;;;;;;;;;;;;;;2.33;100.00;100514.16;4953543;28;19918;-60
2023/12/08 06:19:20;;;;;;;;;;;;;;;2.34;100.00;100515.81;4960577;28;20563;-61
2023/12/08 06:21:45;;;;;;;;;;;;;;;2.35;100.00;100525.34;4955062;28;21315;-60
2023/12/08 06:24:10;;;;;;;;;;;;;;;2.36;100.00;100528.78;4961819;28;20387;-61
2023/12/08 06:26:39;;;;;;;;;;;;;;;2.36;100.00;100531.41;4960129;28;20454;-61
2023/12/08 06:29:04;;;;;;;;;;;;;;;2.39;100.00;100536.41;4961825;28;19914;-60
2023/12/08 06:31:30;;;;;;;;;;;;;;;2.41;100.00;100531.84;4958519;28;19918;-60
2023/12/08 06:33:55;;;;;;;;;;;;;;;2.42;100.00;100536.13;4963150;28;19925;-60
2023/12/08 06:36:20;;;;;;;;;;;;;;;2.44;100.00;100532.44;4965751;28;19926;-60
2023/12/08 06:38:46;;;;;;;;;;;;;;;2.47;100.00;100533.97;4966260;28;20386;-61
2023/12/08 06:41:11;;;;;;;;;;;;;;;2.48;100.00;100533.84;4958224;28;19918;-60
2023/12/08 06:43:36;;;;;;;;;;;;;;;2.51;100.00;100531.94;4966784;28;20504;-60
2023/12/08 06:46:02;;;;;;;;;;;;;;;2.52;100.00;100536.22;4966361;28;19918;-60
2023/12/08 06:48:27;;;;;;;;;;;;;;;2.52;100.00;100539.66;4961721;28;19922;-60
2023/12/08 06:50:52;;;;;;;;;;;;;;;2.54;100.00;100545.59;4964331;28;19918;-60
2023/12/08 06:53:18;;;;;;;;;;;;;;;2.55;100.00;100547.25;4964697;28;20295;-61
2023/12/08 06:55:43;;;;;;;;;;;;;;;2.57;100.00;100545.34;4960764;28;19921;-61
2023/12/08 06:58:08;;;;;;;;;;;;;;;2.58;100.00;100548.81;4956668;28;19922;-61
2023/12/08 07:00:34;;;;;;;;;;;;;;;2.60;100.00;100545.13;4953763;28;19918;-60
2023/12/08 07:02:59;;;;;;;;;;;;;;;2.61;100.00;100554.66;4950999;28;19922;-60
2023/12/08 07:05:24;;;;;;;;;;;;;;;2.62;100.00;100540.59;4950369;28;19953;-60
2023/12/08 07:07:49;;;;;;;;;;;;;;;2.63;100.00;100557.97;4955528;28;20338;-60
2023/12/08 07:10:15;;;;;;;;;;;;;;;2.65;100.00;100542.13;4948068;28;19918;-60
2023/12/08 07:12:41;;;;;;;;;;;;;;;2.65;100.00;100542.94;4955192;28;19922;-60
2023/12/08 07:15:06;;;;;;;;;;;;;;;2.68;100.00;100540.06;4953650;28;19938;-60
2023/12/08 07:17:31;;;;;;;;;;;;;;;2.70;100.00;100545.19;4956756;28;20016;-60
2023/12/08 07:19:56;;;;;;;;;;;;;;;2.72;100.00;100538.84;4953922;28;19914;-60
2023/12/08 07:22:21;;;;;;;;;;;;;;;2.73;100.00;100545.75;4952735;28;20442;-60
2023/12/08 07:24:47;;;;;;;;;;;;;;;2.75;100.00;100549.09;4955869;28;19961;-61
2023/12/08 07:27:12;;;;;;;;;;;;;;;2.77;100.00;100551.56;4956433;28;19925;-60
2023/12/08 07:29:38;;;;;;;;;;;;;;;2.79;100.00;100553.09;4949929;28;19925;-60
2023/12/08 07:32:04;;;;;;;;;;;;;;;2.79;100.00;100550.50;4960387;28;19925;-61
2023/12/08 07:34:29;;;;;;;;;;;;;;;2.81;100.00;100555.59;4960017;28;19926;-60
2023/12/08 07:36:54;;;;;;;;;;;;;;;2.82;100.00;100559.06;4960018;28;19983;-60
2023/12/08 07:39:19;;;;;;;;;;;;;;;2.84;100.00;100557.97;4960670;28;19924;-60
2023/12/08 07:41:45;;;;;;;;;;;;;;;2.85;100.00;100561.41;4959972;28;19918;-60
2023/12/08 07:44:10;;;;;;;;;;;;;;;2.85;100.00;100564.88;4960036;28;19924;-61
2023/12/08 07:46:37;;;;;;;;;;;;;;;2.87;100.00;100573.44;4956603;28;19918;-61
2023/12/08 07:49:02;;;;;;;;;;;;;;;2.87;100.00;100567.38;4960887;28;19943;-61
2023/12/08 07:51:27;;;;;;;;;;;;;;;2.88;100.00;100569.03;4951387;28;19925;-61
2023/12/08 07:53:53;;;;;;;;;;;;;;;2.89;100.00;100565.44;4954221;28;19930;-61
2023/12/08 07:56:18;;;;;;;;;;;;;;;2.91;100.00;100571.41;4960596;28;19996;-61
2023/12/08 07:58:43;;;;;;;;;;;;;;;2.93;100.00;100582.63;4952205;28;19918;-61
2023/12/08 08:01:08;;;;;;;;;;;;;;;2.96;100.00;100587.59;4954980;28;19945;-61
2023/12/08 08:03:34;;;;;;;;;;;;;;;2.96;100.00;100577.94;4951860;28;19944;-61
2023/12/08 08:05:59;;;;;;;;;;;;;;;2.98;100.00;100585.69;4953368;28;20000;-61
2023/12/08 08:08:24;;;;;;;;;;;;;;;2.98;100.00;100578.66;4954981;28;19922;-61
2023/12/08 08:10:49;;;;;;;;;;;;;;;3.01;100.00;100575.75;4958641;28;19926;-61
2023/12/08 08:13:15;;;;;;;;;;;;;;;3.02;100.00;100581.84;4959600;28;19925;-61
2023/12/08 08:15:40;;;;;;;;;;;;;;;3.03;100.00;100588.75;4959272;28;19922;-61
2023/12/08 08:18:05;;;;;;;;;;;;;;;3.05;100.00;100578.94;4954025;28;19953;-61
2023/12/08 08:20:30;;;;;;;;;;;;;;;3.07;100.00;100593.59;4959741;28;19914;-61
2023/12/08 08:22:55;;;;;;;;;;;;;;;3.08;100.00;100583.94;4954385;28;19913;-61
2023/12/08 08:25:21;;;;;;;;;;;;;;;3.10;100.00;100582.00;4956224;28;19946;-61
2023/12/08 08:27:46;;;;;;;;;;;;;;;3.06;100.00;100573.56;4960527;28;20024;-61
2023/12/08 08:30:11;;;;;;;;;;;;;;;3.14;100.00;100587.84;4952550;28;19981;-61
2023/12/08 08:32:37;;;;;;;;;;;;;;;3.15;100.00;100592.94;4960994;28;19922;-62
2023/12/08 08:35:02;;;;;;;;;;;;;;;3.18;100.00;100584.00;4955116;28;20589;-61
2023/12/08 08:37:28;;;;;;;;;;;;;;;3.20;100.00;100589.97;4962289;28;19918;-61
2023/12/08 08:39:53;;;;;;;;;;;;;;;3.22;100.00;100588.88;4959046;28;19926;-61
2023/12/08 08:42:18;;;;;;;;;;;;;;;3.25;100.00;100599.09;4959198;28;19926;-60
2023/12/08 08:44:43;;;;;;;;;;;;;;;3.27;100.00;100591.09;4954804;28;19922;-61
2023/12/08 08:47:08;;;;;;;;;;;;;;;3.29;100.00;100595.25;4960216;28;19918;-61
2023/12/08 08:49:34;;;;;;;;;;;;;;;3.32;100.00;100599.41;4951548;28;19975;-61
2023/12/08 08:51:59;;;;;;;;;;;;;;;3.34;100.00;100608.00;4967202;28;19929;-61
2023/12/08 08:54:25;;;;;;;;;;;;;;;3.38;100.00;100607.59;4953185;28;20004;-61
2023/12/08 08:56:50;;;;;;;;;;;;;;;3.39;100.00;100608.44;4960292;28;20330;-62
2023/12/08 08:59:16;;;;;;;;;;;;;;;3.42;100.00;100606.38;4958929;28;19925;-61
2023/12/08 09:01:42;;;;;;;;;;;;;;;3.45;100.00;100610.53;4960322;28;19918;-61
2023/12/08 09:04:07;;;;;;;;;;;;;;;3.48;100.00;100612.91;4961787;28;19921;-61
2023/12/08 09:06:32;;;;;;;;;;;;;;;3.51;100.00;100617.91;4953791;28;19918;-61
2023/12/08 09:08:58;;;;;;;;;;;;;;;3.54;100.00;100617.63;4954141;28;19917;-61
2023/12/08 09:11:23;;;;;;;;;;;;;;;3.57;100.00;100619.16;4955653;28;19960;-61
2023/12/08 09:13:48;;;;;;;;;;;;;;;3.61;100.00;100625.81;4966529;28;20385;-61
2023/12/08 09:16:14;;;;;;;;;;;;;;;3.64;100.00;100618.50;4958196;28;19946;-61
2023/12/08 09:18:39;;;;;;;;;;;;;;;3.68;100.00;100629.56;4958612;28;19918;-61
2023/12/08 09:21:05;;;;;;;;;;;;;;;3.72;100.00;100628.34;4954982;28;19961;-61
2023/12/08 09:23:30;;;;;;;;;;;;;;;3.75;100.00;100630.69;4956914;28;19918;-61
2023/12/08 09:25:55;;;;;;;;;;;;;;;3.78;100.00;100633.09;4954492;28;20541;-61
2023/12/08 09:28:21;;;;;;;;;;;;;;;3.83;100.00;100637.94;4954712;28;19914;-62
2023/12/08 09:30:46;;;;;;;;;;;;;;;3.87;100.00;100628.84;4960632;28;19926;-61
2023/12/08 09:33:11;;;;;;;;;;;;;;;3.91;100.00;100628.44;4960742;28;19961;-61
2023/12/08 09:35:36;;;;;;;;;;;;;;;3.95;100.00;100635.06;4964023;28;19973;-61
2023/12/08 09:38:03;;;;;;;;;;;;;;;4.00;100.00;100637.31;4962579;28;19929;-61
2023/12/08 09:40:31;;;;;;;;;;;;;;;4.06;100.00;100631.53;4959632;28;19925;-61
2023/12/08 09:43:10;;;;;;;;;;;;;;;4.14;100.00;100638.75;4954803;28;19945;-61
2023/12/08 09:45:36;;;;;;;;;;;;;;;4.20;100.00;100632.94;4963233;28;20422;-61
2023/12/08 09:48:04;;;;;;;;;;;;;;;4.26;100.00;100632.41;4958439;28;19918;-60
2023/12/08 09:50:30;;;;;;;;;;;;;;;4.31;100.00;100623.13;4956864;28;20497;-61
2023/12/08 09:52:55;;;;;;;;;;;;;;;4.41;100.00;100627.59;4956680;28;19918;-61
2023/12/08 09:55:20;;;;;;;;;;;;;;;4.47;100.00;100620.00;4962235;28;20334;-61
2023/12/08 09:57:48;;;;;;;;;;;;;;;4.53;100.00;100629.13;4964325;28;19918;-61
2023/12/08 10:00:15;;;;;;;;;;;;;;;4.59;100.00;100629.41;4953917;28;19996;-61
2023/12/08 10:02:41;;;;;;;;;;;;;;;4.68;100.00;100637.47;4958565;28;20300;-61
2023/12/08 10:05:06;;;;;;;;;;;;;;;4.72;100.00;100646.72;4954351;28;19914;-60
2023/12/08 10:07:33;;;;;;;;;;;;;;;4.83;100.00;100649.22;4953779;28;19925;-61
2023/12/08 10:10:02;;;;;;;;;;;;;;;4.87;100.00;100658.50;4951989;28;19925;-61
2023/12/08 10:12:28;;;;;;;;;;;;;;;4.90;100.00;100653.78;4968145;28;19992;-61
2023/12/08 10:14:58;;;;;;;;;;;;;;;4.93;100.00;100647.44;4949680;28;19918;-61
2023/12/08 10:17:23;;;;;;;;;;;;;;;4.94;100.00;100636.78;4949388;28;19997;-60
2023/12/08 10:19:51;;;;;;;;;;;;;;;4.98;100.00;100638.16;4956257;28;19922;-61
2023/12/08 10:22:16;;;;;;;;;;;;;;;5.01;100.00;100639.66;4957794;28;19922;-62
2023/12/08 10:24:41;;;;;;;;;;;;;;;5.02;100.00;100651.03;4957527;28;20374;-61
2023/12/08 10:27:07;;;;;;;;;;;;;;;5.04;100.00;100660.44;4959460;28;19918;-61
2023/12/08 10:29:33;;;;;;;;;;;;;;;5.08;100.00;100658.34;4950927;28;19918;-61
2023/12/08 10:31:59;;;;;;;;;;;;;;;5.11;100.00;100652.81;4952952;28;20334;-60
2023/12/08 10:34:24;;;;;;;;;;;;;;;5.10;100.00;100644.09;4955859;28;20568;-61
2023/12/08 10:36:49;;;;;;;;;;;;;;;5.19;100.00;100651.13;4954113;28;19922;-61
2023/12/08 10:39:17;;;;;;;;;;;;;;;5.25;100.00;100653.22;4955984;28;20021;-62
2023/12/08 10:41:42;;;;;;;;;;;;;;;5.34;100.00;100653.34;4956721;28;19929;-61
2023/12/08 10:44:08;;;;;;;;;;;;;;;5.37;100.00;100660.97;4959996;28;19914;-61
2023/12/08 10:46:34;;;;;;;;;;;;;;;5.40;100.00;100656.25;4953091;28;19925;-61
2023/12/08 10:49:01;;;;;;;;;;;;;;;5.44;100.00;100654.97;4951980;28;19929;-61
2023/12/08 10:51:26;;;;;;;;;;;;;;;5.46;100.00;100653.03;4951924;28;19929;-61
2023/12/08 10:53:51;;;;;;;;;;;;;;;5.50;100.00;100653.59;4951772;28;19925;-61
2023/12/08 10:56:17;;;;;;;;;;;;;;;5.54;100.00;100663.72;4954481;28;19918;-62
2023/12/08 10:58:44;;;;;;;;;;;;;;;5.56;100.00;100663.56;4952452;28;19914;-61
2023/12/08 11:01:12;;;;;;;;;;;;;;;5.62;100.00;100654.25;4955841;28;19957;-61
2023/12/08 11:03:39;;;;;;;;;;;;;;;5.64;100.00;100647.88;4962395;28;19918;-62
2023/12/08 11:06:10;;;;;;;;;;;;;;;5.65;100.00;100648.69;4951133;28;19980;-62
2023/12/08 11:08:35;;;;;;;;;;;;;;;5.67;100.00;100646.75;4953306;28;19922;-62
2023/12/08 11:11:03;;;;;;;;;;;;;;;5.70;100.00;100655.19;4950561;28;20436;-62
2023/12/08 11:13:29;;;;;;;;;;;;;;;5.73;100.00;100651.44;4950807;28;19930;-62
2023/12/08 11:16:15;;;;;;;;;;;;;;;5.77;100.00;100647.53;4951030;28;19926;-62
2023/12/08 11:18:41;;;;;;;;;;;;;;;5.78;100.00;100657.97;4958897;28;19957;-62
2023/12/08 11:21:10;;;;;;;;;;;;;;;5.83;100.00;100658.34;4954281;28;20017;-61
2023/12/08 11:23:36;;;;;;;;;;;;;;;5.85;100.00;100664.31;4955824;28;19937;-61
2023/12/08 11:26:07;;;;;;;;;;;;;;;5.87;100.00;100654.44;4954945;28;20609;-62
2023/12/08 11:28:42;;;;;;;;;;;;;;;5.92;100.00;100656.69;4956409;28;19919;-62
2023/12/08 11:31:22;;;;;;;;;;;;;;;5.92;100.00;100656.69;4956369;28;19918;-61
2023/12/08 11:33:59;;;;;;;;;;;;;;;5.94;100.00;100660.00;4955622;28;20507;-62
2023/12/08 11:36:27;;;;;;;;;;;;;;;5.97;100.00;100659.69;4957258;28;20365;-61
2023/12/08 11:38:53;;;;;;;;;;;;;;;6.01;100.00;100649.69;4961034;28;19918;-62
2023/12/08 11:41:18;;;;;;;;;;;;;;;6.03;100.00;100647.75;4953775;28;20315;-61
2023/12/08 11:43:46;;;;;;;;;;;;;;;6.08;100.00;100661.34;4946846;28;19918;-61
2023/12/08 11:46:12;;;;;;;;;;;;;;;6.11;100.00;100661.88;4954108;28;20126;-63
2023/12/08 11:48:38;;;;;;;;;;;;;;;6.15;100.00;100671.16;4950466;28;19914;-61
2023/12/08 11:51:07;;;;;;;;;;;;;;;6.19;100.00;100672.50;4945004;28;20303;-62
2023/12/08 11:53:48;;;;;;;;;;;;;;;6.23;100.00;100665.13;4950108;28;19933;-62
2023/12/08 11:56:31;;;;;;;;;;;;;;;6.27;100.00;100671.78;4956793;28;20374;-62
2023/12/08 11:58:59;;;;;;;;;;;;;;;6.31;100.00;100683.69;4952884;28;19966;-61
2023/12/08 12:01:25;;;;;;;;;;;;;;;6.33;100.00;100672.97;4952172;28;20387;-62
2023/12/08 12:03:54;;;;;;;;;;;;;;;6.35;100.00;100668.38;4947618;28;19986;-61
2023/12/08 12:06:19;;;;;;;;;;;;;;;6.37;100.00;100664.66;4953657;28;19918;-62
2023/12/08 12:08:45;;;;;;;;;;;;;;;6.43;100.00;100681.69;4952145;28;20346;-62
2023/12/08 12:11:10;;;;;;;;;;;;;;;6.46;100.00;100684.88;4956572;28;19961;-62
2023/12/08 12:13:37;;;;;;;;;;;;;;;6.50;100.00;100685.38;4953405;28;19961;-62
2023/12/08 12:16:04;;;;;;;;;;;;;;;6.53;100.00;100678.00;4956797;28;20006;-61
2023/12/08 12:18:30;;;;;;;;;;;;;;;6.55;100.00;100687.56;4957264;28;20387;-61
2023/12/08 12:20:55;;;;;;;;;;;;;;;6.57;100.00;100683.81;4954015;28;19925;-62
2023/12/08 12:23:20;;;;;;;;;;;;;;;6.61;100.00;100693.09;4949018;28;19914;-62
2023/12/08 12:25:46;;;;;;;;;;;;;;;6.63;100.00;100685.84;4962322;28;19997;-62
2023/12/08 12:28:11;;;;;;;;;;;;;;;6.65;100.00;100681.28;4962770;28;19957;-62
2023/12/08 12:30:37;;;;;;;;;;;;;;;6.68;100.00;100680.16;4954263;28;19922;-62